FCDMC ALERT System Data Display

6538 Pecos Basin Pool
Impoundment Stage

Impoundment Stage
Date       Time        feet      cfs
01/22/2019 06:00:00    6.10       49
01/22/2019 00:00:00    6.10       49
01/21/2019 18:00:00    6.07       19
01/21/2019 12:00:00    6.05        0
01/21/2019 06:00:00    6.10       49
01/21/2019 00:00:00    6.10       49
01/20/2019 18:00:00    6.05        0
01/20/2019 12:00:00    6.05        0
01/20/2019 06:00:00    6.12       50
01/20/2019 00:00:00    6.10       49
01/19/2019 18:00:00    6.05        0
01/19/2019 12:00:00    6.05        0
01/19/2019 06:00:00    6.10       49
01/19/2019 00:00:00    6.10       49
01/18/2019 18:00:00    6.05        0
01/18/2019 12:00:00    6.05        0
01/18/2019 06:00:00    6.10       49
01/18/2019 00:00:00    6.10       49
01/17/2019 18:00:00    6.05        0
01/17/2019 12:00:00    6.05        0
01/17/2019 06:00:00    6.10       49
01/17/2019 00:00:00    6.10       49
01/16/2019 18:00:00    6.05        0
01/16/2019 12:00:00    6.05        0
01/16/2019 06:00:00    6.10       49
01/16/2019 00:00:00    6.10       49
01/15/2019 18:00:00    6.07       19
01/15/2019 12:00:00    6.05        0
01/15/2019 06:00:00    6.10       49
01/15/2019 00:00:00    6.07       19
01/14/2019 18:00:00    6.05        0
01/14/2019 12:00:00    6.05        0
01/14/2019 06:00:00    6.10       49
01/14/2019 00:00:00    6.10       49
01/13/2019 18:00:00    6.07       19
01/13/2019 12:00:00    6.05        0
01/13/2019 06:00:00    6.10       49
01/13/2019 00:00:00    6.10       49
01/12/2019 18:00:00    6.05        0
01/12/2019 12:00:00    6.05        0
01/12/2019 06:00:00    6.10       49
01/12/2019 00:00:00    6.10       49
01/11/2019 18:00:00    6.08       48
01/11/2019 12:00:00    6.05        0
01/11/2019 06:00:00    6.10       49
01/11/2019 00:00:00    6.10       49
01/10/2019 18:00:00    6.07       19
01/10/2019 12:00:00    6.05        0
01/10/2019 06:00:00    6.10       49
01/10/2019 00:00:00    6.10       49
01/09/2019 18:00:00    6.05        0
01/09/2019 12:00:00    6.05        0
01/09/2019 06:00:00    6.10       49
01/09/2019 00:00:00    6.10       49
01/08/2019 18:00:00    6.05        0
01/08/2019 12:00:00    6.05        0
01/08/2019 06:00:00    6.10       49
01/08/2019 00:00:00    6.10       49
01/07/2019 18:00:00    6.07       19
01/07/2019 12:00:00    6.05        0
01/07/2019 06:00:00    6.10       49
01/07/2019 00:00:00    6.10       49
01/06/2019 18:00:00    6.08       48
01/06/2019 12:00:00    6.07       19
01/06/2019 06:00:00    6.10       49
01/06/2019 00:00:00    6.10       49
01/05/2019 18:00:00    6.07       19
01/05/2019 12:00:00    6.05        0
01/05/2019 06:00:00    6.12       50
01/05/2019 00:00:00    6.10       49
01/04/2019 18:00:00    6.07       19
01/04/2019 12:00:00    6.05        0
01/04/2019 06:00:00    6.12       50
01/03/2019 18:00:00    6.07       19
01/03/2019 12:00:00    6.05        0
01/03/2019 06:00:00    6.12       50
01/03/2019 00:00:00    6.10       49
01/02/2019 18:00:00    6.07       19
01/02/2019 12:00:00    6.05        0
01/02/2019 06:00:00    6.05        0
01/02/2019 00:00:00    6.05        0
01/01/2019 18:00:00    6.05        0
01/01/2019 12:00:00    6.05        0
01/01/2019 06:00:00    6.05        0
01/01/2019 00:00:00    6.05        0
12/31/2018 18:00:00    6.05        0
12/31/2018 12:00:00    6.05        0
12/31/2018 06:00:00    6.05        0
12/31/2018 00:00:00    6.05        0
12/30/2018 18:00:00    6.05        0
12/30/2018 12:00:00    6.05        0
12/30/2018 06:00:00    6.05        0
12/30/2018 00:00:00    6.05        0
12/29/2018 18:00:00    6.05        0
12/29/2018 12:00:00    6.05        0
12/29/2018 06:00:00    6.05        0
12/29/2018 00:00:00    6.05        0
12/28/2018 18:00:00    6.05        0
12/28/2018 12:00:00    6.05        0
12/28/2018 06:00:00    6.05        0